<?xml version="1.0" encoding="UTF-8" standalone="no" ?>
<gpx xmlns="http://www.topografix.com/GPX/1/1" xmlns:xsi="http://www.w3.org/2001/XMLSchema-instance" xsi:schemaLocation="http://www.topografix.com/GPX/1/1 http://www.topografix.com/GPX/1/1/gpx.xsd" version="1.1" creator="VisuGPX - https://www.visugpx.com">
  <metadata>
    <name>Sainte Victoire</name>
    <desc><![CDATA[Circuit 3 jours montagne Ste Victoire]]></desc>
  </metadata>
  <trk>
    <name><![CDATA[Vauvenargues Rians 2013-05-11 09:42]]></name>
    <trkseg>
      <trkpt lat="43.55443" lon="5.61883">
        <ele>478</ele>
        <time>2013-05-11T07:45:00Z</time>
      </trkpt>
      <trkpt lat="43.55427" lon="5.61872">
        <ele>485.5</ele>
        <time>2013-05-11T07:45:33Z</time>
      </trkpt>
      <trkpt lat="43.5543" lon="5.61832">
        <ele>488.70001220703</ele>
        <time>2013-05-11T07:46:35Z</time>
      </trkpt>
      <trkpt lat="43.55446" lon="5.61781">
        <ele>482.70001220703</ele>
        <time>2013-05-11T07:47:09Z</time>
      </trkpt>
      <trkpt lat="43.55482" lon="5.61734">
        <ele>487.09997558594</ele>
        <time>2013-05-11T07:47:44Z</time>
      </trkpt>
      <trkpt lat="43.55487" lon="5.61684">
        <ele>475.29998779297</ele>
        <time>2013-05-11T07:48:17Z</time>
      </trkpt>
      <trkpt lat="43.55473" lon="5.61643">
        <ele>466.5</ele>
        <time>2013-05-11T07:48:49Z</time>
      </trkpt>
      <trkpt lat="43.55463" lon="5.61577">
        <ele>478.79998779297</ele>
        <time>2013-05-11T07:49:23Z</time>
      </trkpt>
      <trkpt lat="43.55445" lon="5.61536">
        <ele>466.90002441406</ele>
        <time>2013-05-11T07:49:51Z</time>
      </trkpt>
      <trkpt lat="43.55477" lon="5.61497">
        <ele>473.59997558594</ele>
        <time>2013-05-11T07:50:19Z</time>
      </trkpt>
      <trkpt lat="43.55499" lon="5.61474">
        <ele>485.20001220703</ele>
        <time>2013-05-11T07:50:44Z</time>
      </trkpt>
      <trkpt lat="43.5551" lon="5.61485">
        <ele>463.79998779297</ele>
        <time>2013-05-11T07:52:06Z</time>
      </trkpt>
      <trkpt lat="43.55524" lon="5.6147">
        <ele>494.09997558594</ele>
        <time>2013-05-11T07:52:41Z</time>
      </trkpt>
      <trkpt lat="43.55551" lon="5.61442">
        <ele>492.09997558594</ele>
        <time>2013-05-11T07:53:13Z</time>
      </trkpt>
      <trkpt lat="43.55574" lon="5.61483">
        <ele>519.59997558594</ele>
        <time>2013-05-11T07:53:45Z</time>
      </trkpt>
      <trkpt lat="43.55584" lon="5.61553">
        <ele>508.90002441406</ele>
        <time>2013-05-11T07:54:20Z</time>
      </trkpt>
      <trkpt lat="43.55586" lon="5.61624">
        <ele>495.70001220703</ele>
        <time>2013-05-11T07:54:54Z</time>
      </trkpt>
      <trkpt lat="43.55605" lon="5.61689">
        <ele>499.40002441406</ele>
        <time>2013-05-11T07:55:28Z</time>
      </trkpt>
      <trkpt lat="43.55621" lon="5.61755">
        <ele>511.90002441406</ele>
        <time>2013-05-11T07:56:03Z</time>
      </trkpt>
      <trkpt lat="43.55624" lon="5.618">
        <ele>515</ele>
        <time>2013-05-11T07:56:32Z</time>
      </trkpt>
      <trkpt lat="43.55662" lon="5.61867">
        <ele>530.19995117188</ele>
        <time>2013-05-11T07:57:07Z</time>
      </trkpt>
      <trkpt lat="43.55678" lon="5.61917">
        <ele>508</ele>
        <time>2013-05-11T07:57:33Z</time>
      </trkpt>
      <trkpt lat="43.55707" lon="5.61958">
        <ele>525.40002441406</ele>
        <time>2013-05-11T07:58:03Z</time>
      </trkpt>
      <trkpt lat="43.55724" lon="5.62018">
        <ele>505.59997558594</ele>
        <time>2013-05-11T07:58:38Z</time>
      </trkpt>
      <trkpt lat="43.55746" lon="5.62053">
        <ele>515.29998779297</ele>
        <time>2013-05-11T07:59:05Z</time>
      </trkpt>
      <trkpt lat="43.55773" lon="5.62107">
        <ele>497.29998779297</ele>
        <time>2013-05-11T07:59:39Z</time>
      </trkpt>
      <trkpt lat="43.55811" lon="5.62131">
        <ele>481.59997558594</ele>
        <time>2013-05-11T08:00:13Z</time>
      </trkpt>
      <trkpt lat="43.5585" lon="5.62124">
        <ele>476.5</ele>
        <time>2013-05-11T08:00:41Z</time>
      </trkpt>
      <trkpt lat="43.55897" lon="5.62129">
        <ele>528.19995117188</ele>
        <time>2013-05-11T08:01:15Z</time>
      </trkpt>
      <trkpt lat="43.5593" lon="5.62184">
        <ele>552.09997558594</ele>
        <time>2013-05-11T08:01:48Z</time>
      </trkpt>
      <trkpt lat="43.55928" lon="5.62241">
        <ele>511.40002441406</ele>
        <time>2013-05-11T08:02:14Z</time>
      </trkpt>
      <trkpt lat="43.55951" lon="5.62286">
        <ele>506.59997558594</ele>
        <time>2013-05-11T08:02:48Z</time>
      </trkpt>
      <trkpt lat="43.55978" lon="5.62301">
        <ele>499</ele>
        <time>2013-05-11T08:03:12Z</time>
      </trkpt>
      <trkpt lat="43.56022" lon="5.62292">
        <ele>509.90002441406</ele>
        <time>2013-05-11T08:03:46Z</time>
      </trkpt>
      <trkpt lat="43.56052" lon="5.62261">
        <ele>514.59997558594</ele>
        <time>2013-05-11T08:04:21Z</time>
      </trkpt>
      <trkpt lat="43.56067" lon="5.62326">
        <ele>515.5</ele>
        <time>2013-05-11T08:04:55Z</time>
      </trkpt>
      <trkpt lat="43.56097" lon="5.62376">
        <ele>515.40002441406</ele>
        <time>2013-05-11T08:05:28Z</time>
      </trkpt>
      <trkpt lat="43.56138" lon="5.62388">
        <ele>514.90002441406</ele>
        <time>2013-05-11T08:05:59Z</time>
      </trkpt>
      <trkpt lat="43.56188" lon="5.62398">
        <ele>527.09997558594</ele>
        <time>2013-05-11T08:06:33Z</time>
      </trkpt>
      <trkpt lat="43.56233" lon="5.6241">
        <ele>554.19995117188</ele>
        <time>2013-05-11T08:07:05Z</time>
      </trkpt>
      <trkpt lat="43.56249" lon="5.62385">
        <ele>536.59997558594</ele>
        <time>2013-05-11T08:07:39Z</time>
      </trkpt>
      <trkpt lat="43.56292" lon="5.62367">
        <ele>561</ele>
        <time>2013-05-11T08:08:14Z</time>
      </trkpt>
      <trkpt lat="43.56321" lon="5.62361">
        <ele>561.09997558594</ele>
        <time>2013-05-11T08:08:40Z</time>
      </trkpt>
      <trkpt lat="43.56346" lon="5.62355">
        <ele>580</ele>
        <time>2013-05-11T08:09:03Z</time>
      </trkpt>
      <trkpt lat="43.56383" lon="5.6236">
        <ele>583</ele>
        <time>2013-05-11T08:09:33Z</time>
      </trkpt>
      <trkpt lat="43.56411" lon="5.62368">
        <ele>604.30004882812</ele>
        <time>2013-05-11T08:09:57Z</time>
      </trkpt>
      <trkpt lat="43.56442" lon="5.62365">
        <ele>592.19995117188</ele>
        <time>2013-05-11T08:10:28Z</time>
      </trkpt>
      <trkpt lat="43.56474" lon="5.62371">
        <ele>609.69995117188</ele>
        <time>2013-05-11T08:10:56Z</time>
      </trkpt>
      <trkpt lat="43.56491" lon="5.62383">
        <ele>582.40002441406</ele>
        <time>2013-05-11T08:11:54Z</time>
      </trkpt>
      <trkpt lat="43.56521" lon="5.62394">
        <ele>580.90002441406</ele>
        <time>2013-05-11T08:12:28Z</time>
      </trkpt>
      <trkpt lat="43.56551" lon="5.62411">
        <ele>573.19995117188</ele>
        <time>2013-05-11T08:12:52Z</time>
      </trkpt>
      <trkpt lat="43.56586" lon="5.62423">
        <ele>567.19995117188</ele>
        <time>2013-05-11T08:13:17Z</time>
      </trkpt>
      <trkpt lat="43.56627" lon="5.62446">
        <ele>566.80004882812</ele>
        <time>2013-05-11T08:13:51Z</time>
      </trkpt>
      <trkpt lat="43.56669" lon="5.62456">
        <ele>571</ele>
        <time>2013-05-11T08:14:26Z</time>
      </trkpt>
      <trkpt lat="43.56701" lon="5.62497">
        <ele>588.69995117188</ele>
        <time>2013-05-11T08:14:59Z</time>
      </trkpt>
      <trkpt lat="43.5676" lon="5.62584">
        <ele>582.69995117188</ele>
        <time>2013-05-11T08:15:33Z</time>
      </trkpt>
      <trkpt lat="43.56793" lon="5.62627">
        <ele>587.90002441406</ele>
        <time>2013-05-11T08:16:09Z</time>
      </trkpt>
      <trkpt lat="43.56814" lon="5.62674">
        <ele>595.59997558594</ele>
        <time>2013-05-11T08:16:42Z</time>
      </trkpt>
      <trkpt lat="43.56836" lon="5.62668">
        <ele>591.30004882812</ele>
        <time>2013-05-11T08:17:17Z</time>
      </trkpt>
      <trkpt lat="43.56838" lon="5.62613">
        <ele>604.5</ele>
        <time>2013-05-11T08:17:52Z</time>
      </trkpt>
      <trkpt lat="43.56835" lon="5.62558">
        <ele>606</ele>
        <time>2013-05-11T08:18:26Z</time>
      </trkpt>
      <trkpt lat="43.56821" lon="5.62509">
        <ele>612.90002441406</ele>
        <time>2013-05-11T08:19:01Z</time>
      </trkpt>
      <trkpt lat="43.56855" lon="5.62483">
        <ele>622.09997558594</ele>
        <time>2013-05-11T08:19:37Z</time>
      </trkpt>
      <trkpt lat="43.56896" lon="5.62472">
        <ele>618</ele>
        <time>2013-05-11T08:20:12Z</time>
      </trkpt>
      <trkpt lat="43.56948" lon="5.62462">
        <ele>629.19995117188</ele>
        <time>2013-05-11T08:20:47Z</time>
      </trkpt>
      <trkpt lat="43.56987" lon="5.62488">
        <ele>634.19995117188</ele>
        <time>2013-05-11T08:21:21Z</time>
      </trkpt>
      <trkpt lat="43.57028" lon="5.62512">
        <ele>622.09997558594</ele>
        <time>2013-05-11T08:21:55Z</time>
      </trkpt>
      <trkpt lat="43.57066" lon="5.62557">
        <ele>623.80004882812</ele>
        <time>2013-05-11T08:22:29Z</time>
      </trkpt>
      <trkpt lat="43.57102" lon="5.62598">
        <ele>616.5</ele>
        <time>2013-05-11T08:23:04Z</time>
      </trkpt>
      <trkpt lat="43.57164" lon="5.62593">
        <ele>610.59997558594</ele>
        <time>2013-05-11T08:23:39Z</time>
      </trkpt>
      <trkpt lat="43.57222" lon="5.62566">
        <ele>611.59997558594</ele>
        <time>2013-05-11T08:24:15Z</time>
      </trkpt>
      <trkpt lat="43.57244" lon="5.62538">
        <ele>624.80004882812</ele>
        <time>2013-05-11T08:24:49Z</time>
      </trkpt>
      <trkpt lat="43.57283" lon="5.62477">
        <ele>629.69995117188</ele>
        <time>2013-05-11T08:25:26Z</time>
      </trkpt>
      <trkpt lat="43.57312" lon="5.62423">
        <ele>630.59997558594</ele>
        <time>2013-05-11T08:26:01Z</time>
      </trkpt>
      <trkpt lat="43.57333" lon="5.6245">
        <ele>627.5</ele>
        <time>2013-05-11T08:26:35Z</time>
      </trkpt>
      <trkpt lat="43.57349" lon="5.62529">
        <ele>624.80004882812</ele>
        <time>2013-05-11T08:27:10Z</time>
      </trkpt>
      <trkpt lat="43.5735" lon="5.62598">
        <ele>623.90002441406</ele>
        <time>2013-05-11T08:27:44Z</time>
      </trkpt>
      <trkpt lat="43.57344" lon="5.62665">
        <ele>625</ele>
        <time>2013-05-11T08:28:19Z</time>
      </trkpt>
      <trkpt lat="43.5734" lon="5.62711">
        <ele>617.19995117188</ele>
        <time>2013-05-11T08:28:54Z</time>
      </trkpt>
      <trkpt lat="43.57298" lon="5.62718">
        <ele>614.19995117188</ele>
        <time>2013-05-11T08:29:28Z</time>
      </trkpt>
      <trkpt lat="43.57259" lon="5.62759">
        <ele>619.40002441406</ele>
        <time>2013-05-11T08:30:02Z</time>
      </trkpt>
      <trkpt lat="43.57236" lon="5.62804">
        <ele>622.19995117188</ele>
        <time>2013-05-11T08:30:36Z</time>
      </trkpt>
      <trkpt lat="43.57222" lon="5.62863">
        <ele>617.19995117188</ele>
        <time>2013-05-11T08:31:10Z</time>
      </trkpt>
      <trkpt lat="43.57214" lon="5.6292">
        <ele>622.59997558594</ele>
        <time>2013-05-11T08:31:45Z</time>
      </trkpt>
      <trkpt lat="43.57204" lon="5.62975">
        <ele>624.40002441406</ele>
        <time>2013-05-11T08:32:19Z</time>
      </trkpt>
      <trkpt lat="43.57192" lon="5.63036">
        <ele>622.80004882812</ele>
        <time>2013-05-11T08:32:54Z</time>
      </trkpt>
      <trkpt lat="43.57188" lon="5.63092">
        <ele>627.30004882812</ele>
        <time>2013-05-11T08:33:28Z</time>
      </trkpt>
      <trkpt lat="43.5717" lon="5.63148">
        <ele>634.90002441406</ele>
        <time>2013-05-11T08:34:02Z</time>
      </trkpt>
      <trkpt lat="43.57154" lon="5.63346">
        <ele>636.5</ele>
        <time>2013-05-11T08:34:37Z</time>
      </trkpt>
      <trkpt lat="43.57181" lon="5.63609">
        <ele>653.09997558594</ele>
        <time>2013-05-11T08:35:12Z</time>
      </trkpt>
      <trkpt lat="43.57178" lon="5.63663">
        <ele>655.80004882812</ele>
        <time>2013-05-11T08:35:43Z</time>
      </trkpt>
      <trkpt lat="43.57156" lon="5.63719">
        <ele>656.5</ele>
        <time>2013-05-11T08:36:18Z</time>
      </trkpt>
      <trkpt lat="43.57157" lon="5.63828">
        <ele>656.09997558594</ele>
        <time>2013-05-11T08:36:53Z</time>
      </trkpt>
      <trkpt lat="43.57155" lon="5.63938">
        <ele>662</ele>
        <time>2013-05-11T08:37:28Z</time>
      </trkpt>
      <trkpt lat="43.57147" lon="5.64009">
        <ele>656.30004882812</ele>
        <time>2013-05-11T08:38:00Z</time>
      </trkpt>
      <trkpt lat="43.57135" lon="5.64075">
        <ele>655.19995117188</ele>
        <time>2013-05-11T08:38:35Z</time>
      </trkpt>
      <trkpt lat="43.57128" lon="5.64144">
        <ele>651.80004882812</ele>
        <time>2013-05-11T08:39:10Z</time>
      </trkpt>
      <trkpt lat="43.57121" lon="5.64153">
        <ele>653.40002441406</ele>
        <time>2013-05-11T08:40:10Z</time>
      </trkpt>
      <trkpt lat="43.57127" lon="5.64164">
        <ele>661.80004882812</ele>
        <time>2013-05-11T08:40:43Z</time>
      </trkpt>
      <trkpt lat="43.57124" lon="5.64181">
        <ele>651.69995117188</ele>
        <time>2013-05-11T08:41:53Z</time>
      </trkpt>
      <trkpt lat="43.57127" lon="5.64235">
        <ele>648.5</ele>
        <time>2013-05-11T08:42:21Z</time>
      </trkpt>
      <trkpt lat="43.57137" lon="5.64301">
        <ele>648.80004882812</ele>
        <time>2013-05-11T08:42:56Z</time>
      </trkpt>
      <trkpt lat="43.57133" lon="5.64369">
        <ele>646.09997558594</ele>
        <time>2013-05-11T08:43:31Z</time>
      </trkpt>
      <trkpt lat="43.57131" lon="5.64447">
        <ele>644.69995117188</ele>
        <time>2013-05-11T08:44:06Z</time>
      </trkpt>
      <trkpt lat="43.57117" lon="5.6451">
        <ele>641.19995117188</ele>
        <time>2013-05-11T08:44:40Z</time>
      </trkpt>
      <trkpt lat="43.57103" lon="5.64558">
        <ele>635.90002441406</ele>
        <time>2013-05-11T08:45:09Z</time>
      </trkpt>
      <trkpt lat="43.57102" lon="5.64598">
        <ele>632.59997558594</ele>
        <time>2013-05-11T08:45:44Z</time>
      </trkpt>
      <trkpt lat="43.57147" lon="5.64659">
        <ele>632.30004882812</ele>
        <time>2013-05-11T08:46:14Z</time>
      </trkpt>
      <trkpt lat="43.57148" lon="5.64717">
        <ele>632.19995117188</ele>
        <time>2013-05-11T08:46:46Z</time>
      </trkpt>
      <trkpt lat="43.57152" lon="5.64729">
        <ele>641.19995117188</ele>
        <time>2013-05-11T08:48:11Z</time>
      </trkpt>
      <trkpt lat="43.5715" lon="5.6478">
        <ele>632.90002441406</ele>
        <time>2013-05-11T08:48:46Z</time>
      </trkpt>
      <trkpt lat="43.57157" lon="5.64844">
        <ele>627.5</ele>
        <time>2013-05-11T08:49:20Z</time>
      </trkpt>
      <trkpt lat="43.57167" lon="5.64907">
        <ele>621.59997558594</ele>
        <time>2013-05-11T08:49:55Z</time>
      </trkpt>
      <trkpt lat="43.57168" lon="5.64969">
        <ele>621.40002441406</ele>
        <time>2013-05-11T08:50:30Z</time>
      </trkpt>
      <trkpt lat="43.57175" lon="5.6503">
        <ele>622.19995117188</ele>
        <time>2013-05-11T08:51:04Z</time>
      </trkpt>
      <trkpt lat="43.57182" lon="5.65086">
        <ele>613.90002441406</ele>
        <time>2013-05-11T08:51:39Z</time>
      </trkpt>
      <trkpt lat="43.57181" lon="5.65151">
        <ele>608.90002441406</ele>
        <time>2013-05-11T08:52:13Z</time>
      </trkpt>
      <trkpt lat="43.57187" lon="5.65218">
        <ele>610.30004882812</ele>
        <time>2013-05-11T08:52:48Z</time>
      </trkpt>
      <trkpt lat="43.57187" lon="5.65279">
        <ele>607.40002441406</ele>
        <time>2013-05-11T08:53:22Z</time>
      </trkpt>
      <trkpt lat="43.57191" lon="5.65328">
        <ele>600</ele>
        <time>2013-05-11T08:53:57Z</time>
      </trkpt>
      <trkpt lat="43.57178" lon="5.65396">
        <ele>597.69995117188</ele>
        <time>2013-05-11T08:54:31Z</time>
      </trkpt>
      <trkpt lat="43.57174" lon="5.65456">
        <ele>595.59997558594</ele>
        <time>2013-05-11T08:55:05Z</time>
      </trkpt>
      <trkpt lat="43.5716" lon="5.65511">
        <ele>590.59997558594</ele>
        <time>2013-05-11T08:55:39Z</time>
      </trkpt>
      <trkpt lat="43.57149" lon="5.65564">
        <ele>586.90002441406</ele>
        <time>2013-05-11T08:56:13Z</time>
      </trkpt>
      <trkpt lat="43.57114" lon="5.65608">
        <ele>588.40002441406</ele>
        <time>2013-05-11T08:56:48Z</time>
      </trkpt>
      <trkpt lat="43.57107" lon="5.65679">
        <ele>590.09997558594</ele>
        <time>2013-05-11T08:57:23Z</time>
      </trkpt>
      <trkpt lat="43.5711" lon="5.65746">
        <ele>586.69995117188</ele>
        <time>2013-05-11T08:57:58Z</time>
      </trkpt>
      <trkpt lat="43.57118" lon="5.65813">
        <ele>584.80004882812</ele>
        <time>2013-05-11T08:58:33Z</time>
      </trkpt>
      <trkpt lat="43.57108" lon="5.65892">
        <ele>589.09997558594</ele>
        <time>2013-05-11T08:59:06Z</time>
      </trkpt>
      <trkpt lat="43.57087" lon="5.65957">
        <ele>580.69995117188</ele>
        <time>2013-05-11T08:59:41Z</time>
      </trkpt>
      <trkpt lat="43.57069" lon="5.66025">
        <ele>579.69995117188</ele>
        <time>2013-05-11T09:00:16Z</time>
      </trkpt>
      <trkpt lat="43.57082" lon="5.66059">
        <ele>580</ele>
        <time>2013-05-11T09:00:50Z</time>
      </trkpt>
      <trkpt lat="43.57099" lon="5.66049">
        <ele>580.80004882812</ele>
        <time>2013-05-11T09:02:00Z</time>
      </trkpt>
      <trkpt lat="43.57155" lon="5.66058">
        <ele>577.40002441406</ele>
        <time>2013-05-11T09:02:35Z</time>
      </trkpt>
      <trkpt lat="43.57177" lon="5.66102">
        <ele>566.30004882812</ele>
        <time>2013-05-11T09:03:09Z</time>
      </trkpt>
      <trkpt lat="43.5719" lon="5.66172">
        <ele>576.09997558594</ele>
        <time>2013-05-11T09:03:44Z</time>
      </trkpt>
      <trkpt lat="43.5719" lon="5.66244">
        <ele>569.90002441406</ele>
        <time>2013-05-11T09:04:18Z</time>
      </trkpt>
      <trkpt lat="43.57195" lon="5.66329">
        <ele>562.40002441406</ele>
        <time>2013-05-11T09:04:53Z</time>
      </trkpt>
      <trkpt lat="43.57212" lon="5.66396">
        <ele>570.59997558594</ele>
        <time>2013-05-11T09:05:27Z</time>
      </trkpt>
      <trkpt lat="43.5722" lon="5.66448">
        <ele>565.5</ele>
        <time>2013-05-11T09:06:01Z</time>
      </trkpt>
      <trkpt lat="43.57235" lon="5.6651">
        <ele>560.80004882812</ele>
        <time>2013-05-11T09:06:35Z</time>
      </trkpt>
      <trkpt lat="43.57218" lon="5.66593">
        <ele>556.5</ele>
        <time>2013-05-11T09:07:10Z</time>
      </trkpt>
      <trkpt lat="43.57216" lon="5.6667">
        <ele>562.09997558594</ele>
        <time>2013-05-11T09:07:44Z</time>
      </trkpt>
      <trkpt lat="43.57233" lon="5.66776">
        <ele>559.90002441406</ele>
        <time>2013-05-11T09:08:19Z</time>
      </trkpt>
      <trkpt lat="43.5725" lon="5.66839">
        <ele>559.90002441406</ele>
        <time>2013-05-11T09:08:54Z</time>
      </trkpt>
      <trkpt lat="43.57251" lon="5.66913">
        <ele>559.19995117188</ele>
        <time>2013-05-11T09:09:29Z</time>
      </trkpt>
      <trkpt lat="43.5728" lon="5.67015">
        <ele>565.80004882812</ele>
        <time>2013-05-11T09:10:03Z</time>
      </trkpt>
      <trkpt lat="43.57315" lon="5.67046">
        <ele>563.59997558594</ele>
        <time>2013-05-11T09:10:37Z</time>
      </trkpt>
      <trkpt lat="43.57334" lon="5.67089">
        <ele>562.40002441406</ele>
        <time>2013-05-11T09:11:06Z</time>
      </trkpt>
      <trkpt lat="43.57348" lon="5.67125">
        <ele>569.5</ele>
        <time>2013-05-11T09:11:29Z</time>
      </trkpt>
      <trkpt lat="43.57369" lon="5.67173">
        <ele>571.69995117188</ele>
        <time>2013-05-11T09:12:02Z</time>
      </trkpt>
      <trkpt lat="43.57369" lon="5.67218">
        <ele>569.59997558594</ele>
        <time>2013-05-11T09:12:28Z</time>
      </trkpt>
      <trkpt lat="43.57365" lon="5.6728">
        <ele>565.5</ele>
        <time>2013-05-11T09:13:03Z</time>
      </trkpt>
      <trkpt lat="43.57391" lon="5.67327">
        <ele>560</ele>
        <time>2013-05-11T09:13:37Z</time>
      </trkpt>
      <trkpt lat="43.57417" lon="5.67371">
        <ele>555.80004882812</ele>
        <time>2013-05-11T09:14:06Z</time>
      </trkpt>
      <trkpt lat="43.57435" lon="5.67415">
        <ele>557.40002441406</ele>
        <time>2013-05-11T09:14:33Z</time>
      </trkpt>
      <trkpt lat="43.57446" lon="5.67459">
        <ele>554.40002441406</ele>
        <time>2013-05-11T09:14:59Z</time>
      </trkpt>
      <trkpt lat="43.57453" lon="5.67518">
        <ele>549.19995117188</ele>
        <time>2013-05-11T09:15:32Z</time>
      </trkpt>
      <trkpt lat="43.57458" lon="5.67569">
        <ele>549.40002441406</ele>
        <time>2013-05-11T09:16:01Z</time>
      </trkpt>
      <trkpt lat="43.57458" lon="5.67608">
        <ele>546.30004882812</ele>
        <time>2013-05-11T09:16:28Z</time>
      </trkpt>
      <trkpt lat="43.57456" lon="5.67647">
        <ele>546.40002441406</ele>
        <time>2013-05-11T09:17:03Z</time>
      </trkpt>
      <trkpt lat="43.57456" lon="5.6771">
        <ele>539.59997558594</ele>
        <time>2013-05-11T09:17:37Z</time>
      </trkpt>
      <trkpt lat="43.5746" lon="5.67761">
        <ele>535.69995117188</ele>
        <time>2013-05-11T09:18:08Z</time>
      </trkpt>
      <trkpt lat="43.57461" lon="5.67815">
        <ele>532.59997558594</ele>
        <time>2013-05-11T09:18:34Z</time>
      </trkpt>
      <trkpt lat="43.57469" lon="5.67858">
        <ele>530.69995117188</ele>
        <time>2013-05-11T09:18:57Z</time>
      </trkpt>
      <trkpt lat="43.57472" lon="5.67901">
        <ele>526.40002441406</ele>
        <time>2013-05-11T09:19:20Z</time>
      </trkpt>
      <trkpt lat="43.5748" lon="5.67941">
        <ele>527.19995117188</ele>
        <time>2013-05-11T09:19:43Z</time>
      </trkpt>
      <trkpt lat="43.57523" lon="5.67969">
        <ele>527</ele>
        <time>2013-05-11T09:20:18Z</time>
      </trkpt>
      <trkpt lat="43.57549" lon="5.68004">
        <ele>521.59997558594</ele>
        <time>2013-05-11T09:20:45Z</time>
      </trkpt>
      <trkpt lat="43.57563" lon="5.68048">
        <ele>518</ele>
        <time>2013-05-11T09:21:12Z</time>
      </trkpt>
      <trkpt lat="43.57583" lon="5.68098">
        <ele>513.40002441406</ele>
        <time>2013-05-11T09:21:46Z</time>
      </trkpt>
      <trkpt lat="43.57619" lon="5.68125">
        <ele>517</ele>
        <time>2013-05-11T09:22:21Z</time>
      </trkpt>
      <trkpt lat="43.57652" lon="5.68173">
        <ele>509</ele>
        <time>2013-05-11T09:22:55Z</time>
      </trkpt>
      <trkpt lat="43.5766" lon="5.68244">
        <ele>508.70001220703</ele>
        <time>2013-05-11T09:23:30Z</time>
      </trkpt>
      <trkpt lat="43.57706" lon="5.68294">
        <ele>516.20001220703</ele>
        <time>2013-05-11T09:24:05Z</time>
      </trkpt>
      <trkpt lat="43.57739" lon="5.68369">
        <ele>508.70001220703</ele>
        <time>2013-05-11T09:24:40Z</time>
      </trkpt>
      <trkpt lat="43.57804" lon="5.68539">
        <ele>506</ele>
        <time>2013-05-11T09:25:14Z</time>
      </trkpt>
      <trkpt lat="43.57841" lon="5.68673">
        <ele>503.79998779297</ele>
        <time>2013-05-11T09:25:37Z</time>
      </trkpt>
      <trkpt lat="43.57856" lon="5.68753">
        <ele>503.70001220703</ele>
        <time>2013-05-11T09:26:11Z</time>
      </trkpt>
      <trkpt lat="43.57877" lon="5.68818">
        <ele>507</ele>
        <time>2013-05-11T09:26:46Z</time>
      </trkpt>
      <trkpt lat="43.579" lon="5.68887">
        <ele>503.40002441406</ele>
        <time>2013-05-11T09:27:21Z</time>
      </trkpt>
      <trkpt lat="43.57916" lon="5.68958">
        <ele>501.70001220703</ele>
        <time>2013-05-11T09:27:56Z</time>
      </trkpt>
      <trkpt lat="43.57922" lon="5.69032">
        <ele>495.90002441406</ele>
        <time>2013-05-11T09:28:30Z</time>
      </trkpt>
      <trkpt lat="43.57918" lon="5.69116">
        <ele>494.20001220703</ele>
        <time>2013-05-11T09:29:05Z</time>
      </trkpt>
      <trkpt lat="43.57914" lon="5.69186">
        <ele>492.79998779297</ele>
        <time>2013-05-11T09:29:40Z</time>
      </trkpt>
      <trkpt lat="43.57913" lon="5.69271">
        <ele>498.09997558594</ele>
        <time>2013-05-11T09:30:15Z</time>
      </trkpt>
      <trkpt lat="43.57931" lon="5.69356">
        <ele>492.29998779297</ele>
        <time>2013-05-11T09:30:49Z</time>
      </trkpt>
      <trkpt lat="43.57936" lon="5.6943">
        <ele>491.29998779297</ele>
        <time>2013-05-11T09:31:23Z</time>
      </trkpt>
      <trkpt lat="43.57947" lon="5.69507">
        <ele>495.5</ele>
        <time>2013-05-11T09:31:57Z</time>
      </trkpt>
      <trkpt lat="43.57968" lon="5.6958">
        <ele>487.79998779297</ele>
        <time>2013-05-11T09:32:32Z</time>
      </trkpt>
      <trkpt lat="43.57976" lon="5.69677">
        <ele>485</ele>
        <time>2013-05-11T09:33:04Z</time>
      </trkpt>
      <trkpt lat="43.5799" lon="5.69748">
        <ele>484.79998779297</ele>
        <time>2013-05-11T09:33:39Z</time>
      </trkpt>
      <trkpt lat="43.58003" lon="5.69816">
        <ele>481.20001220703</ele>
        <time>2013-05-11T09:34:14Z</time>
      </trkpt>
      <trkpt lat="43.58012" lon="5.69888">
        <ele>481.29998779297</ele>
        <time>2013-05-11T09:34:48Z</time>
      </trkpt>
      <trkpt lat="43.58037" lon="5.69959">
        <ele>482.90002441406</ele>
        <time>2013-05-11T09:35:22Z</time>
      </trkpt>
      <trkpt lat="43.58054" lon="5.70029">
        <ele>473.20001220703</ele>
        <time>2013-05-11T09:35:57Z</time>
      </trkpt>
      <trkpt lat="43.58091" lon="5.70202">
        <ele>477.09997558594</ele>
        <time>2013-05-11T09:36:32Z</time>
      </trkpt>
      <trkpt lat="43.5811" lon="5.70292">
        <ele>477.59997558594</ele>
        <time>2013-05-11T09:37:07Z</time>
      </trkpt>
      <trkpt lat="43.58121" lon="5.70353">
        <ele>478.29998779297</ele>
        <time>2013-05-11T09:37:41Z</time>
      </trkpt>
      <trkpt lat="43.58131" lon="5.70415">
        <ele>472.59997558594</ele>
        <time>2013-05-11T09:38:15Z</time>
      </trkpt>
      <trkpt lat="43.58154" lon="5.70493">
        <ele>480</ele>
        <time>2013-05-11T09:38:51Z</time>
      </trkpt>
      <trkpt lat="43.58184" lon="5.7056">
        <ele>475.79998779297</ele>
        <time>2013-05-11T09:39:26Z</time>
      </trkpt>
      <trkpt lat="43.58219" lon="5.70619">
        <ele>474.79998779297</ele>
        <time>2013-05-11T09:40:00Z</time>
      </trkpt>
      <trkpt lat="43.58239" lon="5.70681">
        <ele>469.40002441406</ele>
        <time>2013-05-11T09:40:34Z</time>
      </trkpt>
      <trkpt lat="43.58235" lon="5.70737">
        <ele>465.79998779297</ele>
        <time>2013-05-11T09:41:04Z</time>
      </trkpt>
      <trkpt lat="43.58225" lon="5.70808">
        <ele>465.20001220703</ele>
        <time>2013-05-11T09:41:39Z</time>
      </trkpt>
      <trkpt lat="43.58199" lon="5.7087">
        <ele>467.29998779297</ele>
        <time>2013-05-11T09:42:08Z</time>
      </trkpt>
      <trkpt lat="43.58195" lon="5.7097">
        <ele>461</ele>
        <time>2013-05-11T09:42:41Z</time>
      </trkpt>
      <trkpt lat="43.58179" lon="5.71026">
        <ele>461.29998779297</ele>
        <time>2013-05-11T09:43:09Z</time>
      </trkpt>
      <trkpt lat="43.58159" lon="5.71088">
        <ele>458</ele>
        <time>2013-05-11T09:43:44Z</time>
      </trkpt>
      <trkpt lat="43.58137" lon="5.71137">
        <ele>458.5</ele>
        <time>2013-05-11T09:44:10Z</time>
      </trkpt>
      <trkpt lat="43.5812" lon="5.71209">
        <ele>468.09997558594</ele>
        <time>2013-05-11T09:44:36Z</time>
      </trkpt>
      <trkpt lat="43.58106" lon="5.71276">
        <ele>448.90002441406</ele>
        <time>2013-05-11T09:45:07Z</time>
      </trkpt>
      <trkpt lat="43.58085" lon="5.71334">
        <ele>455.29998779297</ele>
        <time>2013-05-11T09:45:42Z</time>
      </trkpt>
      <trkpt lat="43.58124" lon="5.71374">
        <ele>460.29998779297</ele>
        <time>2013-05-11T09:46:16Z</time>
      </trkpt>
      <trkpt lat="43.5815" lon="5.71428">
        <ele>445.5</ele>
        <time>2013-05-11T09:46:50Z</time>
      </trkpt>
      <trkpt lat="43.58177" lon="5.71487">
        <ele>442</ele>
        <time>2013-05-11T09:47:25Z</time>
      </trkpt>
      <trkpt lat="43.58194" lon="5.71551">
        <ele>451.20001220703</ele>
        <time>2013-05-11T09:47:52Z</time>
      </trkpt>
      <trkpt lat="43.58212" lon="5.71621">
        <ele>439.70001220703</ele>
        <time>2013-05-11T09:48:27Z</time>
      </trkpt>
      <trkpt lat="43.58208" lon="5.71696">
        <ele>446.09997558594</ele>
        <time>2013-05-11T09:49:02Z</time>
      </trkpt>
      <trkpt lat="43.58198" lon="5.71766">
        <ele>443.40002441406</ele>
        <time>2013-05-11T09:49:35Z</time>
      </trkpt>
      <trkpt lat="43.58195" lon="5.71839">
        <ele>442.09997558594</ele>
        <time>2013-05-11T09:50:08Z</time>
      </trkpt>
      <trkpt lat="43.58209" lon="5.71891">
        <ele>435.59997558594</ele>
        <time>2013-05-11T09:50:37Z</time>
      </trkpt>
      <trkpt lat="43.58223" lon="5.71948">
        <ele>438.90002441406</ele>
        <time>2013-05-11T09:51:04Z</time>
      </trkpt>
      <trkpt lat="43.58228" lon="5.71936">
        <ele>428.90002441406</ele>
        <time>2013-05-11T09:51:29Z</time>
      </trkpt>
      <trkpt lat="43.58203" lon="5.71923">
        <ele>440.5</ele>
        <time>2013-05-11T09:51:52Z</time>
      </trkpt>
      <trkpt lat="43.58215" lon="5.71917">
        <ele>459.09997558594</ele>
        <time>2013-05-11T09:52:24Z</time>
      </trkpt>
      <trkpt lat="43.58212" lon="5.71897">
        <ele>440.5</ele>
        <time>2013-05-11T09:52:51Z</time>
      </trkpt>
      <trkpt lat="43.58197" lon="5.71906">
        <ele>436.70001220703</ele>
        <time>2013-05-11T09:53:16Z</time>
      </trkpt>
      <trkpt lat="43.58195" lon="5.71936">
        <ele>435.5</ele>
        <time>2013-05-11T09:53:42Z</time>
      </trkpt>
      <trkpt lat="43.58186" lon="5.71953">
        <ele>438.20001220703</ele>
        <time>2013-05-11T09:54:07Z</time>
      </trkpt>
      <trkpt lat="43.58173" lon="5.71978">
        <ele>444.90002441406</ele>
        <time>2013-05-11T09:54:32Z</time>
      </trkpt>
      <trkpt lat="43.58196" lon="5.71944">
        <ele>447.20001220703</ele>
        <time>2013-05-11T09:55:31Z</time>
      </trkpt>
      <trkpt lat="43.58202" lon="5.71914">
        <ele>449.09997558594</ele>
        <time>2013-05-11T09:56:06Z</time>
      </trkpt>
      <trkpt lat="43.58215" lon="5.71909">
        <ele>452.5</ele>
        <time>2013-05-11T09:57:57Z</time>
      </trkpt>
      <trkpt lat="43.58226" lon="5.71954">
        <ele>435.59997558594</ele>
        <time>2013-05-11T09:58:58Z</time>
      </trkpt>
      <trkpt lat="43.58245" lon="5.71993">
        <ele>428.40002441406</ele>
        <time>2013-05-11T09:59:23Z</time>
      </trkpt>
      <trkpt lat="43.58266" lon="5.7206">
        <ele>431.79998779297</ele>
        <time>2013-05-11T09:59:58Z</time>
      </trkpt>
      <trkpt lat="43.5829" lon="5.72126">
        <ele>430.09997558594</ele>
        <time>2013-05-11T10:00:33Z</time>
      </trkpt>
      <trkpt lat="43.58291" lon="5.72182">
        <ele>426.59997558594</ele>
        <time>2013-05-11T10:01:02Z</time>
      </trkpt>
      <trkpt lat="43.58297" lon="5.72229">
        <ele>420.79998779297</ele>
        <time>2013-05-11T10:01:26Z</time>
      </trkpt>
      <trkpt lat="43.58305" lon="5.72279">
        <ele>415.09997558594</ele>
        <time>2013-05-11T10:01:49Z</time>
      </trkpt>
      <trkpt lat="43.58307" lon="5.72318">
        <ele>403.90002441406</ele>
        <time>2013-05-11T10:02:12Z</time>
      </trkpt>
      <trkpt lat="43.58306" lon="5.72358">
        <ele>407.20001220703</ele>
        <time>2013-05-11T10:02:36Z</time>
      </trkpt>
      <trkpt lat="43.58329" lon="5.72402">
        <ele>402.09997558594</ele>
        <time>2013-05-11T10:02:59Z</time>
      </trkpt>
      <trkpt lat="43.58354" lon="5.72457">
        <ele>413.90002441406</ele>
        <time>2013-05-11T10:03:24Z</time>
      </trkpt>
      <trkpt lat="43.58357" lon="5.72486">
        <ele>447.59997558594</ele>
        <time>2013-05-11T10:03:59Z</time>
      </trkpt>
      <trkpt lat="43.5838" lon="5.72514">
        <ele>441.40002441406</ele>
        <time>2013-05-11T10:04:24Z</time>
      </trkpt>
      <trkpt lat="43.5841" lon="5.72535">
        <ele>425.29998779297</ele>
        <time>2013-05-11T10:04:50Z</time>
      </trkpt>
      <trkpt lat="43.58423" lon="5.7263">
        <ele>423.90002441406</ele>
        <time>2013-05-11T10:05:33Z</time>
      </trkpt>
      <trkpt lat="43.58439" lon="5.72683">
        <ele>436.29998779297</ele>
        <time>2013-05-11T10:05:57Z</time>
      </trkpt>
      <trkpt lat="43.58425" lon="5.72706">
        <ele>424.29998779297</ele>
        <time>2013-05-11T10:06:22Z</time>
      </trkpt>
      <trkpt lat="43.58434" lon="5.72756">
        <ele>411</ele>
        <time>2013-05-11T10:06:52Z</time>
      </trkpt>
      <trkpt lat="43.58445" lon="5.72811">
        <ele>423.20001220703</ele>
        <time>2013-05-11T10:07:19Z</time>
      </trkpt>
      <trkpt lat="43.58442" lon="5.72865">
        <ele>436.59997558594</ele>
        <time>2013-05-11T10:07:46Z</time>
      </trkpt>
      <trkpt lat="43.5842" lon="5.72905">
        <ele>434</ele>
        <time>2013-05-11T10:08:12Z</time>
      </trkpt>
      <trkpt lat="43.58364" lon="5.72907">
        <ele>442.59997558594</ele>
        <time>2013-05-11T10:08:39Z</time>
      </trkpt>
      <trkpt lat="43.58308" lon="5.72892">
        <ele>467.40002441406</ele>
        <time>2013-05-11T10:09:07Z</time>
      </trkpt>
      <trkpt lat="43.58284" lon="5.7287">
        <ele>457.79998779297</ele>
        <time>2013-05-11T10:09:38Z</time>
      </trkpt>
      <trkpt lat="43.58243" lon="5.72848">
        <ele>455.09997558594</ele>
        <time>2013-05-11T10:10:07Z</time>
      </trkpt>
      <trkpt lat="43.58197" lon="5.72871">
        <ele>448.79998779297</ele>
        <time>2013-05-11T10:10:33Z</time>
      </trkpt>
      <trkpt lat="43.58164" lon="5.72904">
        <ele>445.90002441406</ele>
        <time>2013-05-11T10:10:59Z</time>
      </trkpt>
      <trkpt lat="43.58148" lon="5.72929">
        <ele>423.70001220703</ele>
        <time>2013-05-11T10:11:24Z</time>
      </trkpt>
      <trkpt lat="43.58145" lon="5.72948">
        <ele>433.70001220703</ele>
        <time>2013-05-11T10:11:59Z</time>
      </trkpt>
      <trkpt lat="43.5815" lon="5.72932">
        <ele>394</ele>
        <time>2013-05-11T10:12:33Z</time>
      </trkpt>
      <trkpt lat="43.5815" lon="5.72946">
        <ele>428.20001220703</ele>
        <time>2013-05-11T10:13:23Z</time>
      </trkpt>
      <trkpt lat="43.58145" lon="5.72968">
        <ele>435.70001220703</ele>
        <time>2013-05-11T10:14:23Z</time>
      </trkpt>
      <trkpt lat="43.58138" lon="5.7295">
        <ele>429.5</ele>
        <time>2013-05-11T11:21:04Z</time>
      </trkpt>
      <trkpt lat="43.5811" lon="5.72993">
        <ele>420.5</ele>
        <time>2013-05-11T11:21:38Z</time>
      </trkpt>
      <trkpt lat="43.58155" lon="5.72923">
        <ele>425.09997558594</ele>
        <time>2013-05-11T11:22:12Z</time>
      </trkpt>
      <trkpt lat="43.58188" lon="5.72889">
        <ele>431.70001220703</ele>
        <time>2013-05-11T11:22:47Z</time>
      </trkpt>
      <trkpt lat="43.5823" lon="5.72855">
        <ele>430.79998779297</ele>
        <time>2013-05-11T11:23:22Z</time>
      </trkpt>
      <trkpt lat="43.58268" lon="5.72863">
        <ele>423.5</ele>
        <time>2013-05-11T11:23:56Z</time>
      </trkpt>
      <trkpt lat="43.58321" lon="5.72872">
        <ele>431.90002441406</ele>
        <time>2013-05-11T11:24:31Z</time>
      </trkpt>
      <trkpt lat="43.58357" lon="5.72892">
        <ele>428</ele>
        <time>2013-05-11T11:25:03Z</time>
      </trkpt>
      <trkpt lat="43.58394" lon="5.72906">
        <ele>430.40002441406</ele>
        <time>2013-05-11T11:25:32Z</time>
      </trkpt>
      <trkpt lat="43.58427" lon="5.72902">
        <ele>430.09997558594</ele>
        <time>2013-05-11T11:25:58Z</time>
      </trkpt>
      <trkpt lat="43.58466" lon="5.72885">
        <ele>431</ele>
        <time>2013-05-11T11:26:33Z</time>
      </trkpt>
      <trkpt lat="43.58486" lon="5.7295">
        <ele>430.20001220703</ele>
        <time>2013-05-11T11:27:09Z</time>
      </trkpt>
      <trkpt lat="43.58512" lon="5.72999">
        <ele>427.29998779297</ele>
        <time>2013-05-11T11:27:43Z</time>
      </trkpt>
      <trkpt lat="43.58542" lon="5.73043">
        <ele>439.90002441406</ele>
        <time>2013-05-11T11:28:20Z</time>
      </trkpt>
      <trkpt lat="43.58567" lon="5.73089">
        <ele>428.59997558594</ele>
        <time>2013-05-11T11:28:54Z</time>
      </trkpt>
      <trkpt lat="43.58573" lon="5.7315">
        <ele>444</ele>
        <time>2013-05-11T11:29:34Z</time>
      </trkpt>
      <trkpt lat="43.58566" lon="5.73201">
        <ele>450.20001220703</ele>
        <time>2013-05-11T11:30:09Z</time>
      </trkpt>
      <trkpt lat="43.58594" lon="5.73251">
        <ele>435.5</ele>
        <time>2013-05-11T11:30:47Z</time>
      </trkpt>
      <trkpt lat="43.58617" lon="5.73309">
        <ele>439.70001220703</ele>
        <time>2013-05-11T11:31:22Z</time>
      </trkpt>
      <trkpt lat="43.58636" lon="5.73379">
        <ele>454.40002441406</ele>
        <time>2013-05-11T11:31:57Z</time>
      </trkpt>
      <trkpt lat="43.58641" lon="5.73448">
        <ele>453.90002441406</ele>
        <time>2013-05-11T11:32:42Z</time>
      </trkpt>
      <trkpt lat="43.58681" lon="5.73499">
        <ele>446.79998779297</ele>
        <time>2013-05-11T11:33:26Z</time>
      </trkpt>
      <trkpt lat="43.58707" lon="5.73587">
        <ele>483.79998779297</ele>
        <time>2013-05-11T11:34:20Z</time>
      </trkpt>
      <trkpt lat="43.58747" lon="5.7362">
        <ele>468.09997558594</ele>
        <time>2013-05-11T11:34:54Z</time>
      </trkpt>
      <trkpt lat="43.58783" lon="5.73669">
        <ele>471.70001220703</ele>
        <time>2013-05-11T11:35:34Z</time>
      </trkpt>
      <trkpt lat="43.58819" lon="5.73699">
        <ele>474.29998779297</ele>
        <time>2013-05-11T11:36:09Z</time>
      </trkpt>
      <trkpt lat="43.58849" lon="5.73736">
        <ele>480.59997558594</ele>
        <time>2013-05-11T11:36:43Z</time>
      </trkpt>
      <trkpt lat="43.58873" lon="5.73794">
        <ele>487.5</ele>
        <time>2013-05-11T11:37:27Z</time>
      </trkpt>
      <trkpt lat="43.58878" lon="5.73845">
        <ele>498.20001220703</ele>
        <time>2013-05-11T11:38:01Z</time>
      </trkpt>
      <trkpt lat="43.5885" lon="5.73878">
        <ele>496.90002441406</ele>
        <time>2013-05-11T11:38:35Z</time>
      </trkpt>
      <trkpt lat="43.58842" lon="5.73834">
        <ele>494.40002441406</ele>
        <time>2013-05-11T11:39:15Z</time>
      </trkpt>
      <trkpt lat="43.58806" lon="5.73797">
        <ele>504.5</ele>
        <time>2013-05-11T11:39:48Z</time>
      </trkpt>
      <trkpt lat="43.58771" lon="5.73779">
        <ele>496.70001220703</ele>
        <time>2013-05-11T11:40:19Z</time>
      </trkpt>
      <trkpt lat="43.58732" lon="5.73801">
        <ele>490</ele>
        <time>2013-05-11T11:40:52Z</time>
      </trkpt>
      <trkpt lat="43.58766" lon="5.73837">
        <ele>517.79998779297</ele>
        <time>2013-05-11T11:42:02Z</time>
      </trkpt>
      <trkpt lat="43.58769" lon="5.73893">
        <ele>524.5</ele>
        <time>2013-05-11T11:42:38Z</time>
      </trkpt>
      <trkpt lat="43.58768" lon="5.73952">
        <ele>525</ele>
        <time>2013-05-11T11:43:12Z</time>
      </trkpt>
      <trkpt lat="43.58783" lon="5.74011">
        <ele>522.70001220703</ele>
        <time>2013-05-11T11:43:47Z</time>
      </trkpt>
      <trkpt lat="43.58787" lon="5.7406">
        <ele>527.40002441406</ele>
        <time>2013-05-11T11:44:22Z</time>
      </trkpt>
      <trkpt lat="43.5878" lon="5.74124">
        <ele>529.59997558594</ele>
        <time>2013-05-11T11:44:55Z</time>
      </trkpt>
      <trkpt lat="43.58813" lon="5.74151">
        <ele>526.59997558594</ele>
        <time>2013-05-11T11:45:29Z</time>
      </trkpt>
      <trkpt lat="43.58859" lon="5.74156">
        <ele>527.30004882812</ele>
        <time>2013-05-11T11:46:04Z</time>
      </trkpt>
      <trkpt lat="43.58908" lon="5.74158">
        <ele>533.09997558594</ele>
        <time>2013-05-11T11:46:39Z</time>
      </trkpt>
      <trkpt lat="43.58951" lon="5.7414">
        <ele>535.59997558594</ele>
        <time>2013-05-11T11:47:13Z</time>
      </trkpt>
      <trkpt lat="43.58989" lon="5.7411">
        <ele>533.90002441406</ele>
        <time>2013-05-11T11:47:48Z</time>
      </trkpt>
      <trkpt lat="43.59042" lon="5.74101">
        <ele>529.40002441406</ele>
        <time>2013-05-11T11:48:23Z</time>
      </trkpt>
      <trkpt lat="43.59083" lon="5.74111">
        <ele>530.80004882812</ele>
        <time>2013-05-11T11:48:58Z</time>
      </trkpt>
      <trkpt lat="43.59093" lon="5.74122">
        <ele>530.59997558594</ele>
        <time>2013-05-11T11:49:32Z</time>
      </trkpt>
      <trkpt lat="43.59127" lon="5.74139">
        <ele>524.59997558594</ele>
        <time>2013-05-11T11:50:07Z</time>
      </trkpt>
      <trkpt lat="43.59173" lon="5.74158">
        <ele>522.40002441406</ele>
        <time>2013-05-11T11:50:42Z</time>
      </trkpt>
      <trkpt lat="43.59192" lon="5.74244">
        <ele>524.69995117188</ele>
        <time>2013-05-11T11:51:17Z</time>
      </trkpt>
      <trkpt lat="43.59221" lon="5.74272">
        <ele>516.29998779297</ele>
        <time>2013-05-11T11:51:51Z</time>
      </trkpt>
      <trkpt lat="43.59249" lon="5.74321">
        <ele>524.09997558594</ele>
        <time>2013-05-11T11:52:26Z</time>
      </trkpt>
      <trkpt lat="43.59282" lon="5.74356">
        <ele>517.70001220703</ele>
        <time>2013-05-11T11:53:00Z</time>
      </trkpt>
      <trkpt lat="43.59289" lon="5.74374">
        <ele>530.09997558594</ele>
        <time>2013-05-11T11:53:34Z</time>
      </trkpt>
      <trkpt lat="43.59338" lon="5.74384">
        <ele>514.59997558594</ele>
        <time>2013-05-11T11:54:44Z</time>
      </trkpt>
      <trkpt lat="43.59356" lon="5.74412">
        <ele>516.90002441406</ele>
        <time>2013-05-11T11:55:18Z</time>
      </trkpt>
      <trkpt lat="43.59361" lon="5.74433">
        <ele>514.29998779297</ele>
        <time>2013-05-11T11:55:53Z</time>
      </trkpt>
      <trkpt lat="43.59355" lon="5.74468">
        <ele>515.70001220703</ele>
        <time>2013-05-11T11:56:27Z</time>
      </trkpt>
      <trkpt lat="43.59373" lon="5.74516">
        <ele>508.70001220703</ele>
        <time>2013-05-11T11:57:01Z</time>
      </trkpt>
      <trkpt lat="43.59396" lon="5.74552">
        <ele>497.59997558594</ele>
        <time>2013-05-11T11:57:35Z</time>
      </trkpt>
      <trkpt lat="43.59425" lon="5.74579">
        <ele>488.59997558594</ele>
        <time>2013-05-11T11:58:09Z</time>
      </trkpt>
      <trkpt lat="43.59444" lon="5.74617">
        <ele>484.20001220703</ele>
        <time>2013-05-11T11:58:43Z</time>
      </trkpt>
      <trkpt lat="43.59466" lon="5.7463">
        <ele>478.29998779297</ele>
        <time>2013-05-11T11:59:17Z</time>
      </trkpt>
      <trkpt lat="43.59492" lon="5.74681">
        <ele>474.29998779297</ele>
        <time>2013-05-11T11:59:51Z</time>
      </trkpt>
      <trkpt lat="43.59529" lon="5.7472">
        <ele>469.59997558594</ele>
        <time>2013-05-11T12:00:26Z</time>
      </trkpt>
      <trkpt lat="43.59555" lon="5.74765">
        <ele>466.70001220703</ele>
        <time>2013-05-11T12:01:00Z</time>
      </trkpt>
      <trkpt lat="43.59567" lon="5.7479">
        <ele>468.20001220703</ele>
        <time>2013-05-11T12:01:35Z</time>
      </trkpt>
      <trkpt lat="43.59602" lon="5.7481">
        <ele>460.09997558594</ele>
        <time>2013-05-11T12:02:09Z</time>
      </trkpt>
      <trkpt lat="43.59644" lon="5.74823">
        <ele>462.09997558594</ele>
        <time>2013-05-11T12:02:43Z</time>
      </trkpt>
      <trkpt lat="43.59695" lon="5.74815">
        <ele>457.29998779297</ele>
        <time>2013-05-11T12:03:17Z</time>
      </trkpt>
      <trkpt lat="43.5974" lon="5.74818">
        <ele>454.90002441406</ele>
        <time>2013-05-11T12:03:52Z</time>
      </trkpt>
      <trkpt lat="43.59782" lon="5.74828">
        <ele>446.09997558594</ele>
        <time>2013-05-11T12:04:25Z</time>
      </trkpt>
      <trkpt lat="43.59826" lon="5.74854">
        <ele>442</ele>
        <time>2013-05-11T12:05:00Z</time>
      </trkpt>
      <trkpt lat="43.59878" lon="5.7488">
        <ele>443.09997558594</ele>
        <time>2013-05-11T12:05:34Z</time>
      </trkpt>
      <trkpt lat="43.59922" lon="5.74905">
        <ele>441.79998779297</ele>
        <time>2013-05-11T12:06:09Z</time>
      </trkpt>
      <trkpt lat="43.59975" lon="5.74931">
        <ele>440.09997558594</ele>
        <time>2013-05-11T12:06:44Z</time>
      </trkpt>
      <trkpt lat="43.60021" lon="5.74948">
        <ele>452</ele>
        <time>2013-05-11T12:07:19Z</time>
      </trkpt>
      <trkpt lat="43.60068" lon="5.7494">
        <ele>451</ele>
        <time>2013-05-11T12:07:54Z</time>
      </trkpt>
      <trkpt lat="43.60128" lon="5.74967">
        <ele>443.90002441406</ele>
        <time>2013-05-11T12:08:29Z</time>
      </trkpt>
      <trkpt lat="43.60167" lon="5.74981">
        <ele>441.59997558594</ele>
        <time>2013-05-11T12:09:00Z</time>
      </trkpt>
      <trkpt lat="43.60189" lon="5.74987">
        <ele>440.09997558594</ele>
        <time>2013-05-11T12:09:28Z</time>
      </trkpt>
      <trkpt lat="43.60234" lon="5.75">
        <ele>442.5</ele>
        <time>2013-05-11T12:10:03Z</time>
      </trkpt>
      <trkpt lat="43.60257" lon="5.7501">
        <ele>439.40002441406</ele>
        <time>2013-05-11T12:10:33Z</time>
      </trkpt>
      <trkpt lat="43.60262" lon="5.75045">
        <ele>441.70001220703</ele>
        <time>2013-05-11T12:12:08Z</time>
      </trkpt>
      <trkpt lat="43.60283" lon="5.75086">
        <ele>443.90002441406</ele>
        <time>2013-05-11T12:12:36Z</time>
      </trkpt>
      <trkpt lat="43.60311" lon="5.75128">
        <ele>434</ele>
        <time>2013-05-11T12:13:11Z</time>
      </trkpt>
      <trkpt lat="43.60353" lon="5.75156">
        <ele>437.40002441406</ele>
        <time>2013-05-11T12:13:45Z</time>
      </trkpt>
      <trkpt lat="43.60385" lon="5.75204">
        <ele>437.40002441406</ele>
        <time>2013-05-11T12:14:20Z</time>
      </trkpt>
      <trkpt lat="43.60414" lon="5.75259">
        <ele>437.09997558594</ele>
        <time>2013-05-11T12:14:55Z</time>
      </trkpt>
      <trkpt lat="43.60444" lon="5.7531">
        <ele>434.59997558594</ele>
        <time>2013-05-11T12:15:30Z</time>
      </trkpt>
      <trkpt lat="43.60485" lon="5.75348">
        <ele>436.20001220703</ele>
        <time>2013-05-11T12:16:05Z</time>
      </trkpt>
      <trkpt lat="43.60533" lon="5.75389">
        <ele>451.70001220703</ele>
        <time>2013-05-11T12:16:40Z</time>
      </trkpt>
      <trkpt lat="43.60565" lon="5.75419">
        <ele>439.90002441406</ele>
        <time>2013-05-11T12:17:09Z</time>
      </trkpt>
      <trkpt lat="43.60585" lon="5.7544">
        <ele>450.90002441406</ele>
        <time>2013-05-11T12:17:44Z</time>
      </trkpt>
      <trkpt lat="43.60609" lon="5.75472">
        <ele>427.70001220703</ele>
        <time>2013-05-11T12:18:52Z</time>
      </trkpt>
      <trkpt lat="43.60604" lon="5.75484">
        <ele>433.5</ele>
        <time>2013-05-11T12:20:35Z</time>
      </trkpt>
      <trkpt lat="43.6058" lon="5.75541">
        <ele>431.79998779297</ele>
        <time>2013-05-11T12:21:56Z</time>
      </trkpt>
      <trkpt lat="43.60581" lon="5.75593">
        <ele>445.59997558594</ele>
        <time>2013-05-11T12:22:24Z</time>
      </trkpt>
      <trkpt lat="43.60553" lon="5.75641">
        <ele>436.90002441406</ele>
        <time>2013-05-11T12:22:58Z</time>
      </trkpt>
      <trkpt lat="43.60546" lon="5.75703">
        <ele>441.40002441406</ele>
        <time>2013-05-11T12:23:34Z</time>
      </trkpt>
      <trkpt lat="43.60547" lon="5.75766">
        <ele>446.5</ele>
        <time>2013-05-11T12:24:08Z</time>
      </trkpt>
      <trkpt lat="43.60521" lon="5.75812">
        <ele>441.70001220703</ele>
        <time>2013-05-11T12:24:43Z</time>
      </trkpt>
      <trkpt lat="43.60509" lon="5.7587">
        <ele>447.5</ele>
        <time>2013-05-11T12:25:13Z</time>
      </trkpt>
      <trkpt lat="43.60514" lon="5.75928">
        <ele>447</ele>
        <time>2013-05-11T12:25:47Z</time>
      </trkpt>
      <trkpt lat="43.60515" lon="5.75987">
        <ele>436</ele>
        <time>2013-05-11T12:26:20Z</time>
      </trkpt>
      <trkpt lat="43.60517" lon="5.76039">
        <ele>431.5</ele>
        <time>2013-05-11T12:26:49Z</time>
      </trkpt>
      <trkpt lat="43.60524" lon="5.761">
        <ele>429</ele>
        <time>2013-05-11T12:27:23Z</time>
      </trkpt>
      <trkpt lat="43.60563" lon="5.76138">
        <ele>429</ele>
        <time>2013-05-11T12:27:58Z</time>
      </trkpt>
      <trkpt lat="43.60587" lon="5.76168">
        <ele>424.90002441406</ele>
        <time>2013-05-11T12:28:21Z</time>
      </trkpt>
      <trkpt lat="43.60616" lon="5.76196">
        <ele>422</ele>
        <time>2013-05-11T12:28:49Z</time>
      </trkpt>
      <trkpt lat="43.60652" lon="5.76236">
        <ele>422.70001220703</ele>
        <time>2013-05-11T12:29:24Z</time>
      </trkpt>
      <trkpt lat="43.60673" lon="5.7628">
        <ele>420.09997558594</ele>
        <time>2013-05-11T12:29:52Z</time>
      </trkpt>
      <trkpt lat="43.60688" lon="5.76322">
        <ele>414.20001220703</ele>
        <time>2013-05-11T12:30:19Z</time>
      </trkpt>
      <trkpt lat="43.60709" lon="5.76385">
        <ele>412.70001220703</ele>
        <time>2013-05-11T12:30:54Z</time>
      </trkpt>
      <trkpt lat="43.60727" lon="5.76423">
        <ele>410.40002441406</ele>
        <time>2013-05-11T12:31:17Z</time>
      </trkpt>
      <trkpt lat="43.60747" lon="5.7646">
        <ele>415.59997558594</ele>
        <time>2013-05-11T12:31:40Z</time>
      </trkpt>
      <trkpt lat="43.60765" lon="5.765">
        <ele>418.20001220703</ele>
        <time>2013-05-11T12:32:05Z</time>
      </trkpt>
      <trkpt lat="43.60786" lon="5.7656">
        <ele>420.29998779297</ele>
        <time>2013-05-11T12:32:36Z</time>
      </trkpt>
      <trkpt lat="43.60814" lon="5.76611">
        <ele>427.29998779297</ele>
        <time>2013-05-11T12:33:11Z</time>
      </trkpt>
      <trkpt lat="43.60811" lon="5.76674">
        <ele>432.40002441406</ele>
        <time>2013-05-11T12:33:46Z</time>
      </trkpt>
      <trkpt lat="43.60808" lon="5.76733">
        <ele>434.5</ele>
        <time>2013-05-11T12:34:21Z</time>
      </trkpt>
      <trkpt lat="43.60808" lon="5.76795">
        <ele>440.40002441406</ele>
        <time>2013-05-11T12:34:51Z</time>
      </trkpt>
      <trkpt lat="43.60793" lon="5.76852">
        <ele>438.90002441406</ele>
        <time>2013-05-11T12:35:25Z</time>
      </trkpt>
      <trkpt lat="43.60787" lon="5.76897">
        <ele>439.09997558594</ele>
        <time>2013-05-11T12:36:00Z</time>
      </trkpt>
      <trkpt lat="43.60787" lon="5.7694">
        <ele>433.70001220703</ele>
        <time>2013-05-11T12:36:24Z</time>
      </trkpt>
      <trkpt lat="43.60785" lon="5.76987">
        <ele>429.09997558594</ele>
        <time>2013-05-11T12:36:52Z</time>
      </trkpt>
      <trkpt lat="43.60786" lon="5.77032">
        <ele>425.5</ele>
        <time>2013-05-11T12:37:18Z</time>
      </trkpt>
      <trkpt lat="43.6079" lon="5.77083">
        <ele>421.40002441406</ele>
        <time>2013-05-11T12:37:46Z</time>
      </trkpt>
      <trkpt lat="43.60799" lon="5.77126">
        <ele>413</ele>
        <time>2013-05-11T12:38:16Z</time>
      </trkpt>
      <trkpt lat="43.60817" lon="5.77187">
        <ele>411.90002441406</ele>
        <time>2013-05-11T12:38:51Z</time>
      </trkpt>
      <trkpt lat="43.60827" lon="5.7725">
        <ele>406.40002441406</ele>
        <time>2013-05-11T12:39:25Z</time>
      </trkpt>
      <trkpt lat="43.60842" lon="5.77316">
        <ele>415.20001220703</ele>
        <time>2013-05-11T12:40:00Z</time>
      </trkpt>
      <trkpt lat="43.6087" lon="5.77388">
        <ele>416.20001220703</ele>
        <time>2013-05-11T12:40:54Z</time>
      </trkpt>
      <trkpt lat="43.609" lon="5.77434">
        <ele>409.90002441406</ele>
        <time>2013-05-11T12:41:28Z</time>
      </trkpt>
      <trkpt lat="43.60929" lon="5.77479">
        <ele>405.90002441406</ele>
        <time>2013-05-11T12:42:03Z</time>
      </trkpt>
      <trkpt lat="43.60962" lon="5.77533">
        <ele>410.59997558594</ele>
        <time>2013-05-11T12:42:38Z</time>
      </trkpt>
      <trkpt lat="43.60997" lon="5.77571">
        <ele>412.70001220703</ele>
        <time>2013-05-11T12:43:12Z</time>
      </trkpt>
      <trkpt lat="43.61033" lon="5.77609">
        <ele>404.79998779297</ele>
        <time>2013-05-11T12:43:47Z</time>
      </trkpt>
      <trkpt lat="43.61061" lon="5.77649">
        <ele>404.40002441406</ele>
        <time>2013-05-11T12:44:21Z</time>
      </trkpt>
      <trkpt lat="43.61096" lon="5.77695">
        <ele>402.5</ele>
        <time>2013-05-11T12:44:56Z</time>
      </trkpt>
      <trkpt lat="43.61134" lon="5.77737">
        <ele>401.90002441406</ele>
        <time>2013-05-11T12:45:30Z</time>
      </trkpt>
      <trkpt lat="43.61167" lon="5.77767">
        <ele>397.09997558594</ele>
        <time>2013-05-11T12:46:04Z</time>
      </trkpt>
      <trkpt lat="43.61197" lon="5.77817">
        <ele>392.70001220703</ele>
        <time>2013-05-11T12:47:13Z</time>
      </trkpt>
      <trkpt lat="43.6123" lon="5.77863">
        <ele>399.29998779297</ele>
        <time>2013-05-11T12:47:47Z</time>
      </trkpt>
      <trkpt lat="43.61246" lon="5.77878">
        <ele>402.40002441406</ele>
        <time>2013-05-11T12:48:20Z</time>
      </trkpt>
      <trkpt lat="43.61269" lon="5.77893">
        <ele>409.90002441406</ele>
        <time>2013-05-11T12:48:54Z</time>
      </trkpt>
      <trkpt lat="43.61316" lon="5.77903">
        <ele>405.40002441406</ele>
        <time>2013-05-11T12:49:28Z</time>
      </trkpt>
      <trkpt lat="43.61357" lon="5.77912">
        <ele>400.79998779297</ele>
        <time>2013-05-11T12:50:05Z</time>
      </trkpt>
      <trkpt lat="43.61398" lon="5.77884">
        <ele>406.29998779297</ele>
        <time>2013-05-11T12:50:32Z</time>
      </trkpt>
      <trkpt lat="43.61461" lon="5.77857">
        <ele>399</ele>
        <time>2013-05-11T12:51:11Z</time>
      </trkpt>
      <trkpt lat="43.61515" lon="5.77841">
        <ele>393.20001220703</ele>
        <time>2013-05-11T12:51:39Z</time>
      </trkpt>
      <trkpt lat="43.61579" lon="5.7781">
        <ele>394.70001220703</ele>
        <time>2013-05-11T12:52:04Z</time>
      </trkpt>
      <trkpt lat="43.61585" lon="5.77779">
        <ele>398.29998779297</ele>
        <time>2013-05-11T12:52:32Z</time>
      </trkpt>
      <trkpt lat="43.61605" lon="5.77749">
        <ele>422.59997558594</ele>
        <time>2013-05-11T12:52:59Z</time>
      </trkpt>
      <trkpt lat="43.61627" lon="5.77698">
        <ele>402.29998779297</ele>
        <time>2013-05-11T12:53:25Z</time>
      </trkpt>
      <trkpt lat="43.61655" lon="5.77667">
        <ele>407.5</ele>
        <time>2013-05-11T12:53:54Z</time>
      </trkpt>
      <trkpt lat="43.61687" lon="5.77647">
        <ele>422</ele>
        <time>2013-05-11T12:54:25Z</time>
      </trkpt>
      <trkpt lat="43.61722" lon="5.77652">
        <ele>432.5</ele>
        <time>2013-05-11T12:54:51Z</time>
      </trkpt>
      <trkpt lat="43.61766" lon="5.77653">
        <ele>436.5</ele>
        <time>2013-05-11T12:55:28Z</time>
      </trkpt>
      <trkpt lat="43.61796" lon="5.77654">
        <ele>431.79998779297</ele>
        <time>2013-05-11T12:55:57Z</time>
      </trkpt>
      <trkpt lat="43.61832" lon="5.77665">
        <ele>455.79998779297</ele>
        <time>2013-05-11T12:56:23Z</time>
      </trkpt>
      <trkpt lat="43.6186" lon="5.77686">
        <ele>455.90002441406</ele>
        <time>2013-05-11T12:56:50Z</time>
      </trkpt>
      <trkpt lat="43.61883" lon="5.77684">
        <ele>466.40002441406</ele>
        <time>2013-05-11T12:57:18Z</time>
      </trkpt>
      <trkpt lat="43.61915" lon="5.77715">
        <ele>466.40002441406</ele>
        <time>2013-05-11T12:57:57Z</time>
      </trkpt>
      <trkpt lat="43.61945" lon="5.77737">
        <ele>458.79998779297</ele>
        <time>2013-05-11T12:58:30Z</time>
      </trkpt>
      <trkpt lat="43.61995" lon="5.77733">
        <ele>453.79998779297</ele>
        <time>2013-05-11T12:59:04Z</time>
      </trkpt>
      <trkpt lat="43.6208" lon="5.77736">
        <ele>473.09997558594</ele>
        <time>2013-05-11T12:59:32Z</time>
      </trkpt>
      <trkpt lat="43.62118" lon="5.77758">
        <ele>461.90002441406</ele>
        <time>2013-05-11T12:59:59Z</time>
      </trkpt>
      <trkpt lat="43.62172" lon="5.77695">
        <ele>460.79998779297</ele>
        <time>2013-05-11T13:00:28Z</time>
      </trkpt>
      <trkpt lat="43.62203" lon="5.77709">
        <ele>455.09997558594</ele>
        <time>2013-05-11T13:00:55Z</time>
      </trkpt>
      <trkpt lat="43.62219" lon="5.77754">
        <ele>455.79998779297</ele>
        <time>2013-05-11T13:01:21Z</time>
      </trkpt>
      <trkpt lat="43.6223" lon="5.77805">
        <ele>463</ele>
        <time>2013-05-11T13:01:47Z</time>
      </trkpt>
      <trkpt lat="43.62235" lon="5.7779">
        <ele>466.70001220703</ele>
        <time>2013-05-11T13:02:24Z</time>
      </trkpt>
      <trkpt lat="43.62258" lon="5.77807">
        <ele>469.29998779297</ele>
        <time>2013-05-11T13:02:57Z</time>
      </trkpt>
      <trkpt lat="43.62263" lon="5.7785">
        <ele>454.29998779297</ele>
        <time>2013-05-11T13:03:27Z</time>
      </trkpt>
      <trkpt lat="43.62263" lon="5.77899">
        <ele>439.5</ele>
        <time>2013-05-11T13:03:53Z</time>
      </trkpt>
      <trkpt lat="43.62317" lon="5.77978">
        <ele>424.59997558594</ele>
        <time>2013-05-11T13:04:23Z</time>
      </trkpt>
      <trkpt lat="43.62352" lon="5.78">
        <ele>417.40002441406</ele>
        <time>2013-05-11T13:04:55Z</time>
      </trkpt>
      <trkpt lat="43.62395" lon="5.78002">
        <ele>416.59997558594</ele>
        <time>2013-05-11T13:05:29Z</time>
      </trkpt>
      <trkpt lat="43.62446" lon="5.78016">
        <ele>421.59997558594</ele>
        <time>2013-05-11T13:06:08Z</time>
      </trkpt>
      <trkpt lat="43.62494" lon="5.78018">
        <ele>430.90002441406</ele>
        <time>2013-05-11T13:06:49Z</time>
      </trkpt>
      <trkpt lat="43.62559" lon="5.78009">
        <ele>426.20001220703</ele>
        <time>2013-05-11T13:07:34Z</time>
      </trkpt>
      <trkpt lat="43.62603" lon="5.78013">
        <ele>421.5</ele>
        <time>2013-05-11T13:08:09Z</time>
      </trkpt>
      <trkpt lat="43.6263" lon="5.78034">
        <ele>411.70001220703</ele>
        <time>2013-05-11T13:08:43Z</time>
      </trkpt>
      <trkpt lat="43.6267" lon="5.78021">
        <ele>411.90002441406</ele>
        <time>2013-05-11T13:09:17Z</time>
      </trkpt>
      <trkpt lat="43.62705" lon="5.78031">
        <ele>413.29998779297</ele>
        <time>2013-05-11T13:09:47Z</time>
      </trkpt>
      <trkpt lat="43.6274" lon="5.78023">
        <ele>407</ele>
        <time>2013-05-11T13:10:21Z</time>
      </trkpt>
      <trkpt lat="43.62779" lon="5.77981">
        <ele>390.20001220703</ele>
        <time>2013-05-11T13:11:01Z</time>
      </trkpt>
      <trkpt lat="43.62825" lon="5.77967">
        <ele>391.09997558594</ele>
        <time>2013-05-11T13:11:34Z</time>
      </trkpt>
      <trkpt lat="43.62847" lon="5.77986">
        <ele>383.59997558594</ele>
        <time>2013-05-11T13:11:56Z</time>
      </trkpt>
      <trkpt lat="43.6285" lon="5.78035">
        <ele>373.59997558594</ele>
        <time>2013-05-11T13:12:31Z</time>
      </trkpt>
      <trkpt lat="43.62882" lon="5.78091">
        <ele>382.79998779297</ele>
        <time>2013-05-11T13:12:59Z</time>
      </trkpt>
      <trkpt lat="43.62886" lon="5.78139">
        <ele>381.59997558594</ele>
        <time>2013-05-11T13:13:25Z</time>
      </trkpt>
      <trkpt lat="43.62918" lon="5.78177">
        <ele>379.40002441406</ele>
        <time>2013-05-11T13:13:46Z</time>
      </trkpt>
      <trkpt lat="43.6295" lon="5.78279">
        <ele>382.79998779297</ele>
        <time>2013-05-11T13:14:08Z</time>
      </trkpt>
      <trkpt lat="43.62964" lon="5.78361">
        <ele>394.59997558594</ele>
        <time>2013-05-11T13:14:31Z</time>
      </trkpt>
      <trkpt lat="43.62991" lon="5.78422">
        <ele>388.29998779297</ele>
        <time>2013-05-11T13:14:58Z</time>
      </trkpt>
      <trkpt lat="43.63013" lon="5.78475">
        <ele>387.09997558594</ele>
        <time>2013-05-11T13:15:26Z</time>
      </trkpt>
      <trkpt lat="43.63036" lon="5.7855">
        <ele>372</ele>
        <time>2013-05-11T13:16:00Z</time>
      </trkpt>
      <trkpt lat="43.63026" lon="5.78569">
        <ele>387.90002441406</ele>
        <time>2013-05-11T13:16:34Z</time>
      </trkpt>
      <trkpt lat="43.63034" lon="5.78548">
        <ele>389.5</ele>
        <time>2013-05-11T13:17:11Z</time>
      </trkpt>
      <trkpt lat="43.63046" lon="5.78558">
        <ele>368.09997558594</ele>
        <time>2013-05-11T13:17:46Z</time>
      </trkpt>
      <trkpt lat="43.63072" lon="5.78616">
        <ele>364</ele>
        <time>2013-05-11T13:18:14Z</time>
      </trkpt>
      <trkpt lat="43.63173" lon="5.78678">
        <ele>369.5</ele>
        <time>2013-05-11T13:18:48Z</time>
      </trkpt>
      <trkpt lat="43.63208" lon="5.78757">
        <ele>437.90002441406</ele>
        <time>2013-05-11T13:19:17Z</time>
      </trkpt>
      <trkpt lat="43.63215" lon="5.78807">
        <ele>404.09997558594</ele>
        <time>2013-05-11T13:19:52Z</time>
      </trkpt>
      <trkpt lat="43.6322" lon="5.78825">
        <ele>389.90002441406</ele>
        <time>2013-05-11T13:20:15Z</time>
      </trkpt>
      <trkpt lat="43.63262" lon="5.78869">
        <ele>365.5</ele>
        <time>2013-05-11T13:20:52Z</time>
      </trkpt>
      <trkpt lat="43.63292" lon="5.78935">
        <ele>379.29998779297</ele>
        <time>2013-05-11T13:21:29Z</time>
      </trkpt>
      <trkpt lat="43.63293" lon="5.78985">
        <ele>362.29998779297</ele>
        <time>2013-05-11T13:21:53Z</time>
      </trkpt>
      <trkpt lat="43.63286" lon="5.78995">
        <ele>372.59997558594</ele>
        <time>2013-05-11T13:22:27Z</time>
      </trkpt>
      <trkpt lat="43.63309" lon="5.78996">
        <ele>410.59997558594</ele>
        <time>2013-05-11T13:23:02Z</time>
      </trkpt>
      <trkpt lat="43.63299" lon="5.79009">
        <ele>379.40002441406</ele>
        <time>2013-05-11T13:23:36Z</time>
      </trkpt>
      <trkpt lat="43.6333" lon="5.79067">
        <ele>388.5</ele>
        <time>2013-05-11T13:24:11Z</time>
      </trkpt>
      <trkpt lat="43.63361" lon="5.79095">
        <ele>378.5</ele>
        <time>2013-05-11T13:24:46Z</time>
      </trkpt>
      <trkpt lat="43.63365" lon="5.79141">
        <ele>385.59997558594</ele>
        <time>2013-05-11T13:25:21Z</time>
      </trkpt>
    </trkseg>
  </trk>
</gpx>